Terminal Aerodrome Forecast
Issued by NWS

Home | Current Version | Previous Version | Text Only | Print | Product List | Glossary On
Versions: 1 2 3 4 5 6 7 8 9 10 11 12
000
FTUS45 KRIW 111700
TAFJAC
TAF
KJAC 111730Z 1118/1218 VRB05KT P6SM SCT090
     FM111900 24007KT P6SM VCTS SCT060CB BKN110
     FM120300 01006KT P6SM VCSH SCT060 BKN150
     FM120600 VRB03KT P6SM SCT150
     FM121500 17007KT P6SM VCSH SCT090 BKN120
      AMD LTD TO CLD VIS AND WIND=

USA.gov is the U.S. government's official web portal to all federal, state and local government web resources and services.